createdAt,value
2023-09-12T00:02:21.123Z,14.83
2023-09-12T00:04:47.487Z,14.81
2023-09-12T00:07:13.855Z,14.79
2023-09-12T00:09:40.194Z,14.77
2023-09-12T00:12:06.754Z,14.74
2023-09-12T00:14:33.188Z,14.70
2023-09-12T00:16:59.639Z,14.67
2023-09-12T00:19:26.023Z,14.65
2023-09-12T00:21:53.818Z,14.65
2023-09-12T00:24:20.304Z,14.63
2023-09-12T00:26:46.664Z,14.63
2023-09-12T00:29:12.985Z,14.62
2023-09-12T00:31:39.380Z,14.63
2023-09-12T00:34:05.849Z,14.63
2023-09-12T00:36:34.274Z,14.66
2023-09-12T00:39:00.765Z,14.67
2023-09-12T00:41:27.143Z,14.66
2023-09-12T00:43:53.528Z,14.67
2023-09-12T00:46:20.039Z,14.69
2023-09-12T00:48:46.516Z,14.71
2023-09-12T00:51:12.937Z,14.72
2023-09-12T00:53:39.386Z,14.70
2023-09-12T00:56:05.727Z,14.70
2023-09-12T00:58:32.408Z,14.68
2023-09-12T01:00:59.626Z,14.66
2023-09-12T01:03:26.265Z,14.66
2023-09-12T01:05:52.682Z,14.63
2023-09-12T01:08:19.026Z,14.61
2023-09-12T01:10:47.173Z,14.59
2023-09-12T01:13:14.884Z,14.59
2023-09-12T01:15:41.789Z,14.58
2023-09-12T01:18:08.425Z,14.55
2023-09-12T01:20:35.158Z,14.52
2023-09-12T01:23:16.598Z,14.49
2023-09-12T01:25:42.962Z,14.49
2023-09-12T01:28:10.465Z,14.51
2023-09-12T01:30:37.071Z,14.50
2023-09-12T01:33:03.662Z,14.52
2023-09-12T01:35:30.068Z,14.55
2023-09-12T01:37:56.419Z,14.57
2023-09-12T01:40:36.039Z,14.58
2023-09-12T01:43:02.397Z,14.59
2023-09-12T01:45:28.798Z,14.61
2023-09-12T01:47:55.157Z,14.62
2023-09-12T01:50:21.480Z,14.64
2023-09-12T01:52:47.854Z,14.65
2023-09-12T01:55:14.287Z,14.66
2023-09-12T01:57:40.658Z,14.65
2023-09-12T02:00:07.389Z,14.65
2023-09-12T02:02:33.760Z,14.65
2023-09-12T02:05:00.089Z,14.68
2023-09-12T02:07:26.447Z,14.67
2023-09-12T02:09:52.785Z,14.67
2023-09-12T02:12:19.166Z,14.68
2023-09-12T02:14:45.523Z,14.71
2023-09-12T02:17:11.938Z,14.70
2023-09-12T02:19:38.301Z,14.72
2023-09-12T02:22:04.692Z,14.73
2023-09-12T02:24:31.053Z,14.73
2023-09-12T02:26:57.419Z,14.73
2023-09-12T02:29:23.752Z,14.74
2023-09-12T02:31:50.174Z,14.74
2023-09-12T02:34:16.531Z,14.73
2023-09-12T02:36:42.894Z,14.74
2023-09-12T02:39:09.315Z,14.75
2023-09-12T02:41:35.718Z,14.75
2023-09-12T02:44:02.061Z,14.74
2023-09-12T02:46:28.454Z,14.73
2023-09-12T02:48:54.863Z,14.70
2023-09-12T02:51:21.205Z,14.69
2023-09-12T02:53:47.591Z,14.69
2023-09-12T02:56:13.930Z,14.68
2023-09-12T02:58:40.483Z,14.66
2023-09-12T03:01:07.570Z,14.64
2023-09-12T03:03:34.541Z,14.64
2023-09-12T03:06:01.370Z,14.61
2023-09-12T03:08:27.709Z,14.60
2023-09-12T03:10:56.066Z,14.58
2023-09-12T03:13:23.212Z,14.58
2023-09-12T03:15:49.585Z,14.56
2023-09-12T03:18:16.038Z,14.53
2023-09-12T03:20:42.409Z,14.51
2023-09-12T03:23:08.757Z,14.49
2023-09-12T03:25:39.002Z,14.48
2023-09-12T03:28:08.141Z,14.46
2023-09-12T03:30:35.022Z,14.43
2023-09-12T03:33:01.494Z,14.37
2023-09-12T03:35:28.996Z,14.32
2023-09-12T03:37:55.389Z,14.27
2023-09-12T03:40:21.867Z,14.26
2023-09-12T03:42:48.258Z,14.26
2023-09-12T03:45:14.751Z,14.26
2023-09-12T03:47:41.241Z,14.24
2023-09-12T03:50:07.734Z,14.19
2023-09-12T03:52:34.070Z,14.13
2023-09-12T03:55:01.929Z,14.10
2023-09-12T03:57:28.322Z,14.03
2023-09-12T03:59:54.741Z,14.01
2023-09-12T04:02:21.200Z,14.01
2023-09-12T04:04:48.075Z,13.99
2023-09-12T04:07:14.523Z,13.98
2023-09-12T04:09:41.195Z,13.98
2023-09-12T04:12:10.828Z,13.98
2023-09-12T04:14:37.243Z,13.97
2023-09-12T04:17:05.746Z,13.96
2023-09-12T04:19:33.829Z,13.96
2023-09-12T04:22:00.935Z,13.95
2023-09-12T04:24:27.284Z,13.94
2023-09-12T04:26:54.639Z,13.96
2023-09-12T04:29:20.976Z,13.97
2023-09-12T04:31:47.431Z,13.97
2023-09-12T04:34:13.902Z,13.99
2023-09-12T04:36:40.267Z,13.96
2023-09-12T04:39:06.622Z,13.92
2023-09-12T04:41:35.421Z,13.91
2023-09-12T04:44:03.246Z,13.90
2023-09-12T04:46:29.626Z,13.89
2023-09-12T04:48:56.028Z,13.83
2023-09-12T04:51:22.475Z,13.80
2023-09-12T04:53:52.586Z,13.77
2023-09-12T04:56:18.999Z,13.76
2023-09-12T04:58:49.247Z,13.76
2023-09-12T05:01:18.368Z,13.78
2023-09-12T05:03:45.171Z,13.77
2023-09-12T05:06:11.880Z,13.77
2023-09-12T05:08:38.291Z,13.79
2023-09-12T05:11:04.709Z,13.79
2023-09-12T05:13:31.126Z,13.81
2023-09-12T05:16:00.463Z,13.82
2023-09-12T05:18:27.440Z,13.84
2023-09-12T05:20:53.907Z,13.81
2023-09-12T05:23:20.274Z,13.82
2023-09-12T05:25:46.651Z,13.76
2023-09-12T05:28:16.845Z,13.71
2023-09-12T05:30:43.724Z,13.70
2023-09-12T05:33:10.161Z,13.70
2023-09-12T05:35:37.971Z,13.77
2023-09-12T05:38:04.339Z,13.82
2023-09-12T05:40:30.667Z,13.86
2023-09-12T05:42:57.021Z,13.90
2023-09-12T05:45:23.607Z,13.95
2023-09-12T05:47:51.457Z,14.01
2023-09-12T05:50:18.054Z,14.10
2023-09-12T05:52:44.396Z,14.26
2023-09-12T05:55:10.797Z,14.49
2023-09-12T05:57:37.235Z,14.66
2023-09-12T06:00:06.312Z,14.78
2023-09-12T06:02:34.623Z,14.99
2023-09-12T06:05:01.148Z,15.23
2023-09-12T06:07:27.493Z,15.45
2023-09-12T06:09:53.880Z,15.57
2023-09-12T06:12:20.284Z,15.67
2023-09-12T06:14:46.711Z,15.95
2023-09-12T06:17:13.259Z,16.50
2023-09-12T06:19:40.686Z,17.30
2023-09-12T06:22:07.045Z,18.05
2023-09-12T06:24:33.444Z,18.63
2023-09-12T06:26:59.879Z,19.00
2023-09-12T06:29:26.195Z,18.94
2023-09-12T06:31:52.562Z,18.71
2023-09-12T06:34:18.938Z,18.45
2023-09-12T06:36:46.327Z,18.22
2023-09-12T06:39:12.850Z,18.05
2023-09-12T06:41:39.247Z,17.92
2023-09-12T06:44:06.373Z,17.83
2023-09-12T06:46:36.883Z,17.97
2023-09-12T06:49:03.933Z,18.23
2023-09-12T06:51:33.981Z,18.33
2023-09-12T06:54:02.454Z,18.40
2023-09-12T06:56:28.874Z,18.60
2023-09-12T06:58:56.218Z,19.31
2023-09-12T07:01:22.626Z,20.08
2023-09-12T07:03:49.287Z,20.29
2023-09-12T07:06:15.752Z,20.23
2023-09-12T07:08:42.111Z,20.19
2023-09-12T07:11:08.515Z,20.13
2023-09-12T07:13:34.880Z,20.16
2023-09-12T07:16:01.422Z,20.29
2023-09-12T07:18:27.827Z,20.46
2023-09-12T07:21:00.459Z,20.63
2023-09-12T07:23:26.799Z,20.83
2023-09-12T07:25:53.636Z,21.08
2023-09-12T07:28:20.604Z,21.24
2023-09-12T07:30:47.180Z,21.31
2023-09-12T07:33:13.698Z,21.43
2023-09-12T07:35:41.227Z,21.51
2023-09-12T07:38:07.650Z,21.60
2023-09-12T07:40:33.992Z,21.89
2023-09-12T07:43:00.366Z,21.94
2023-09-12T07:45:26.793Z,22.05
2023-09-12T07:47:53.432Z,22.09
2023-09-12T07:50:19.793Z,22.19
2023-09-12T07:52:46.125Z,22.11
2023-09-12T07:55:12.534Z,22.02
2023-09-12T07:57:39.150Z,21.97
2023-09-12T08:00:11.713Z,21.88
2023-09-12T08:02:38.198Z,21.73
2023-09-12T08:05:05.321Z,21.54
2023-09-12T08:07:31.741Z,21.42
2023-09-12T08:09:58.661Z,21.30
2023-09-12T08:12:25.457Z,21.24
2023-09-12T08:14:52.048Z,21.21
2023-09-12T08:17:18.439Z,21.24
2023-09-12T08:19:44.902Z,21.25
2023-09-12T08:22:11.426Z,21.25
2023-09-12T08:24:37.925Z,21.31
2023-09-12T08:27:04.402Z,21.35
2023-09-12T08:29:31.029Z,21.31
2023-09-12T08:31:57.469Z,21.32
2023-09-12T08:34:23.853Z,21.44
2023-09-12T08:36:50.216Z,21.42
2023-09-12T08:39:17.186Z,21.45
2023-09-12T08:41:43.761Z,21.47
2023-09-12T08:44:10.129Z,21.54
2023-09-12T08:46:38.213Z,21.58
2023-09-12T08:49:05.260Z,21.72
2023-09-12T08:51:33.302Z,21.77
2023-09-12T08:54:00.682Z,21.88
2023-09-12T08:56:27.039Z,22.17
2023-09-12T08:58:53.375Z,22.41
2023-09-12T09:01:19.770Z,22.50
2023-09-12T09:03:46.474Z,22.58
2023-09-12T09:06:13.079Z,22.67
2023-09-12T09:08:39.999Z,22.76
2023-09-12T09:11:09.450Z,22.81
2023-09-12T09:13:35.784Z,22.90
2023-09-12T09:16:22.154Z,22.83
2023-09-12T09:18:56.100Z,22.71
2023-09-12T09:21:26.533Z,22.67
2023-09-12T09:23:53.467Z,22.68
2023-09-12T09:26:19.881Z,22.59
2023-09-12T09:28:46.293Z,22.58
2023-09-12T09:31:13.099Z,22.67
2023-09-12T09:33:41.891Z,22.73
2023-09-12T09:36:08.808Z,22.76
2023-09-12T09:38:35.837Z,22.79
2023-09-12T09:41:04.755Z,22.86
2023-09-12T09:43:32.874Z,22.89
2023-09-12T09:45:59.492Z,22.97
2023-09-12T09:48:28.214Z,23.02
2023-09-12T09:50:55.298Z,23.10
2023-09-12T09:53:27.940Z,23.21
2023-09-12T09:56:02.050Z,23.23
2023-09-12T09:58:28.379Z,23.26
2023-09-12T10:00:55.213Z,23.29
2023-09-12T10:03:21.770Z,23.21
2023-09-12T10:05:49.342Z,23.09
2023-09-12T10:08:18.318Z,22.91
2023-09-12T10:10:44.754Z,22.87
2023-09-12T10:13:11.147Z,22.90
2023-09-12T10:15:37.556Z,23.01
2023-09-12T10:18:14.348Z,23.10
2023-09-12T10:20:51.845Z,23.20
2023-09-12T10:23:24.415Z,23.27
2023-09-12T10:25:50.921Z,23.17
2023-09-12T10:28:17.311Z,23.08
2023-09-12T10:30:43.752Z,23.09
2023-09-12T10:33:10.286Z,23.08
2023-09-12T10:35:36.642Z,23.06
2023-09-12T10:38:06.172Z,23.04
2023-09-12T10:40:32.738Z,23.04
2023-09-12T10:42:59.114Z,23.07
2023-09-12T10:45:25.568Z,23.07
2023-09-12T10:47:52.118Z,23.17
2023-09-12T10:50:18.627Z,23.27
2023-09-12T10:52:45.714Z,23.28
2023-09-12T10:55:17.136Z,23.17
2023-09-12T10:58:03.544Z,23.09
2023-09-12T11:00:29.959Z,23.03
2023-09-12T11:02:56.318Z,22.95
2023-09-12T11:05:28.857Z,22.85
2023-09-12T11:08:01.530Z,22.84
2023-09-12T11:10:28.217Z,22.84
2023-09-12T11:12:55.055Z,22.86
2023-09-12T11:15:22.886Z,22.88
2023-09-12T11:17:49.814Z,22.88
2023-09-12T11:20:16.445Z,22.90
2023-09-12T11:22:43.779Z,22.94
2023-09-12T11:25:20.633Z,22.93
2023-09-12T11:28:03.654Z,22.93
2023-09-12T11:30:32.061Z,22.99
2023-09-12T11:32:58.878Z,23.05
2023-09-12T11:35:29.137Z,23.07
2023-09-12T11:37:58.747Z,23.02
2023-09-12T11:40:46.273Z,22.88
2023-09-12T11:43:20.629Z,22.83
2023-09-12T11:45:47.074Z,22.82
2023-09-12T11:48:13.430Z,22.86
2023-09-12T11:50:42.156Z,22.94
2023-09-12T11:53:11.804Z,22.97
2023-09-12T11:55:47.810Z,22.93
2023-09-12T11:58:15.620Z,22.87
2023-09-12T12:00:47.390Z,22.79
2023-09-12T12:03:14.210Z,22.67
2023-09-12T12:05:42.308Z,22.62
2023-09-12T12:08:27.920Z,22.57
2023-09-12T12:10:56.226Z,22.55
2023-09-12T12:13:22.587Z,22.56
2023-09-12T12:15:49.108Z,22.59
2023-09-12T12:18:15.644Z,22.58
2023-09-12T12:20:42.385Z,22.61
2023-09-12T12:23:08.714Z,22.63
2023-09-12T12:25:35.610Z,22.69
2023-09-12T12:28:02.377Z,22.69
2023-09-12T12:30:31.222Z,22.63
2023-09-12T12:33:13.038Z,22.61
2023-09-12T12:35:53.226Z,22.63
2023-09-12T12:38:21.398Z,22.60
2023-09-12T12:40:49.688Z,22.54
2023-09-12T12:43:17.154Z,22.44
2023-09-12T12:45:52.698Z,22.41
2023-09-12T12:48:19.234Z,22.39
2023-09-12T12:50:45.626Z,22.34
2023-09-12T12:53:12.235Z,22.31
2023-09-12T12:55:39.996Z,22.31
2023-09-12T12:58:06.368Z,22.32
2023-09-12T13:00:33.052Z,22.30
2023-09-12T13:02:59.450Z,22.30
2023-09-12T13:05:25.822Z,22.32
2023-09-12T13:07:52.390Z,22.30
2023-09-12T13:10:19.141Z,22.30
2023-09-12T13:12:48.511Z,22.33
2023-09-12T13:15:15.118Z,22.33
2023-09-12T13:17:41.615Z,22.33
2023-09-12T13:20:09.526Z,22.32
2023-09-12T13:22:36.195Z,22.33
2023-09-12T13:25:03.288Z,22.31
2023-09-12T13:27:30.171Z,22.34
2023-09-12T13:29:58.750Z,22.31
2023-09-12T13:32:26.621Z,22.33
2023-09-12T13:34:53.710Z,22.33
2023-09-12T13:37:20.315Z,22.36
2023-09-12T13:39:52.698Z,22.34
2023-09-12T13:42:22.242Z,22.35
2023-09-12T13:44:48.743Z,22.36
2023-09-12T13:47:22.274Z,22.38
2023-09-12T13:49:49.029Z,22.37
2023-09-12T13:52:16.027Z,22.39
2023-09-12T13:54:42.411Z,22.38
2023-09-12T13:57:08.806Z,22.39
2023-09-12T13:59:43.242Z,22.41
2023-09-12T14:02:11.250Z,22.43
2023-09-12T14:04:37.949Z,22.45
2023-09-12T14:07:05.255Z,22.47
2023-09-12T14:09:32.391Z,22.47
2023-09-12T14:11:59.023Z,22.47
2023-09-12T14:14:26.164Z,22.44
2023-09-12T14:16:52.698Z,22.43
2023-09-12T14:19:20.682Z,22.49
2023-09-12T14:21:49.283Z,22.52
2023-09-12T14:24:16.379Z,22.53
2023-09-12T14:26:42.976Z,22.49
2023-09-12T14:29:09.532Z,22.46
2023-09-12T14:31:37.969Z,22.46
2023-09-12T14:34:06.249Z,22.44
2023-09-12T14:36:32.735Z,22.40
2023-09-12T14:38:59.129Z,22.39
2023-09-12T14:41:25.466Z,22.47
2023-09-12T14:43:51.863Z,22.54
2023-09-12T14:46:18.346Z,22.56
2023-09-12T14:48:54.436Z,22.43
2023-09-12T14:51:30.885Z,22.27
2023-09-12T14:53:59.311Z,22.29
2023-09-12T14:56:25.641Z,22.26
2023-09-12T14:58:52.060Z,22.27
2023-09-12T15:01:18.482Z,22.24
2023-09-12T15:03:45.272Z,22.29
2023-09-12T15:06:11.877Z,22.34
2023-09-12T15:08:38.280Z,22.40
2023-09-12T15:11:05.319Z,22.45
2023-09-12T15:13:31.671Z,22.47
2023-09-12T15:15:58.048Z,22.48
2023-09-12T15:18:24.554Z,22.47
2023-09-12T15:20:52.481Z,22.34
2023-09-12T15:23:19.058Z,22.32
2023-09-12T15:25:45.382Z,22.30
2023-09-12T15:28:11.783Z,22.34
2023-09-12T15:30:38.127Z,22.37
2023-09-12T15:33:04.545Z,22.42
2023-09-12T15:35:30.939Z,22.43
2023-09-12T15:37:57.280Z,22.46
2023-09-12T15:40:23.635Z,22.40
2023-09-12T15:42:50.028Z,22.42
2023-09-12T15:45:17.193Z,22.42
2023-09-12T15:47:43.633Z,22.42
2023-09-12T15:50:10.197Z,22.31
2023-09-12T15:52:38.688Z,22.19
2023-09-12T15:55:06.096Z,22.03
2023-09-12T15:57:32.490Z,21.89
2023-09-12T16:00:00.387Z,21.74
2023-09-12T16:02:26.756Z,21.50
2023-09-12T16:04:53.243Z,21.23
2023-09-12T16:07:19.652Z,21.17
2023-09-12T16:09:46.057Z,21.12
2023-09-12T16:12:12.390Z,21.07
2023-09-12T16:14:38.724Z,21.09
2023-09-12T16:17:05.221Z,20.89
2023-09-12T16:19:31.608Z,20.76
2023-09-12T16:21:58.197Z,20.68
2023-09-12T16:24:24.717Z,20.70
2023-09-12T16:26:51.327Z,20.76
2023-09-12T16:29:17.747Z,20.83
2023-09-12T16:31:44.139Z,20.91
2023-09-12T16:34:10.614Z,20.98
2023-09-12T16:36:37.060Z,21.00
2023-09-12T16:39:03.513Z,21.01
2023-09-12T16:41:29.852Z,20.99
2023-09-12T16:43:57.105Z,20.97
2023-09-12T16:46:23.492Z,20.97
2023-09-12T16:48:49.949Z,20.97
2023-09-12T16:51:16.380Z,20.95
2023-09-12T16:53:43.073Z,20.93
2023-09-12T16:56:09.548Z,20.87
2023-09-12T16:58:37.072Z,20.82
2023-09-12T17:01:03.513Z,20.76
2023-09-12T17:03:30.037Z,20.71
2023-09-12T17:05:56.806Z,20.65
2023-09-12T17:08:23.543Z,20.55
2023-09-12T17:10:49.888Z,20.49
2023-09-12T17:13:16.300Z,20.41
2023-09-12T17:15:42.673Z,20.34
2023-09-12T17:18:09.070Z,20.31
2023-09-12T17:20:35.457Z,20.20
2023-09-12T17:23:01.809Z,20.09
2023-09-12T17:25:28.158Z,19.94
2023-09-12T17:27:54.669Z,19.82
2023-09-12T17:30:22.802Z,19.72
2023-09-12T17:32:49.452Z,19.63
2023-09-12T17:35:15.793Z,19.54
2023-09-12T17:37:42.148Z,19.48
2023-09-12T17:40:08.850Z,19.44
2023-09-12T17:42:35.692Z,19.37
2023-09-12T17:45:02.255Z,19.33
2023-09-12T17:47:28.616Z,19.24
2023-09-12T17:49:55.276Z,19.18
2023-09-12T17:52:21.625Z,19.04
2023-09-12T17:54:48.004Z,18.92
2023-09-12T17:57:14.382Z,18.82
2023-09-12T17:59:41.891Z,18.76
2023-09-12T18:02:08.422Z,18.76
2023-09-12T18:04:35.078Z,18.75
2023-09-12T18:07:02.434Z,18.74
2023-09-12T18:09:29.083Z,18.66
2023-09-12T18:11:56.382Z,18.50
2023-09-12T18:14:22.936Z,18.42
2023-09-12T18:16:49.494Z,18.35
2023-09-12T18:19:15.868Z,18.06
2023-09-12T18:21:42.219Z,17.67
2023-09-12T18:24:08.553Z,17.04
2023-09-12T18:26:34.907Z,16.45
2023-09-12T18:29:02.015Z,16.11
2023-09-12T18:31:28.388Z,16.01
2023-09-12T18:33:54.852Z,15.93
2023-09-12T18:36:22.990Z,16.01
2023-09-12T18:38:52.712Z,16.09
2023-09-12T18:41:19.501Z,16.15
2023-09-12T18:43:46.169Z,16.18
2023-09-12T18:46:13.069Z,16.24
2023-09-12T18:48:40.834Z,16.30
2023-09-12T18:51:07.823Z,16.35
2023-09-12T18:53:34.242Z,16.28
2023-09-12T18:56:00.928Z,16.35
2023-09-12T18:58:27.380Z,16.39
2023-09-12T19:00:53.905Z,16.39
2023-09-12T19:03:20.479Z,16.42
2023-09-12T19:05:47.214Z,16.44
2023-09-12T19:08:14.004Z,16.43
2023-09-12T19:10:40.388Z,16.41
2023-09-12T19:13:08.924Z,16.39
2023-09-12T19:15:36.911Z,16.35
2023-09-12T19:18:03.735Z,16.31
2023-09-12T19:20:30.168Z,16.06
2023-09-12T19:22:56.508Z,15.59
2023-09-12T19:25:22.932Z,15.10
2023-09-12T19:27:49.368Z,14.77
2023-09-12T19:30:15.729Z,14.63
2023-09-12T19:32:42.175Z,14.67
2023-09-12T19:35:08.784Z,14.59
2023-09-12T19:37:35.143Z,14.59
2023-09-12T19:40:01.507Z,14.49
2023-09-12T19:42:27.917Z,14.41
2023-09-12T19:44:54.285Z,14.45
2023-09-12T19:47:20.865Z,14.55
2023-09-12T19:49:47.470Z,14.69
2023-09-12T19:52:14.065Z,14.77
2023-09-12T19:54:40.672Z,14.85
2023-09-12T19:57:07.058Z,14.91
2023-09-12T19:59:33.838Z,14.91
2023-09-12T20:02:00.542Z,14.88
2023-09-12T20:04:29.025Z,14.75
2023-09-12T20:06:55.712Z,14.68
2023-09-12T20:09:22.260Z,14.48
2023-09-12T20:11:48.965Z,14.25
2023-09-12T20:14:15.341Z,14.09
2023-09-12T20:16:41.941Z,13.98
2023-09-12T20:19:09.150Z,13.93
2023-09-12T20:21:36.007Z,13.75
2023-09-12T20:24:04.751Z,13.48
2023-09-12T20:26:31.080Z,13.15
2023-09-12T20:28:57.445Z,12.92
2023-09-12T20:31:23.927Z,12.94
2023-09-12T20:33:50.381Z,13.08
2023-09-12T20:36:16.860Z,13.24
2023-09-12T20:38:46.710Z,13.40
2023-09-12T20:41:13.032Z,13.54
2023-09-12T20:43:39.364Z,13.62
2023-09-12T20:46:07.827Z,13.64
2023-09-12T20:48:38.863Z,13.67
2023-09-12T20:51:09.397Z,13.69
2023-09-12T20:53:35.730Z,13.77
2023-09-12T20:56:02.151Z,13.82
2023-09-12T20:58:28.807Z,13.90
2023-09-12T21:00:56.528Z,13.94
2023-09-12T21:03:23.076Z,13.99
2023-09-12T21:05:49.464Z,14.01
2023-09-12T21:08:15.872Z,14.03
2023-09-12T21:10:42.223Z,14.03
2023-09-12T21:13:08.625Z,14.02
2023-09-12T21:15:35.061Z,13.99
2023-09-12T21:18:01.527Z,13.93
2023-09-12T21:20:27.965Z,13.87
2023-09-12T21:22:54.906Z,13.80
2023-09-12T21:25:21.280Z,13.73
2023-09-12T21:27:47.685Z,13.75
2023-09-12T21:30:14.133Z,13.72
2023-09-12T21:32:40.536Z,13.69
2023-09-12T21:35:11.817Z,13.75
2023-09-12T21:37:38.234Z,13.75
2023-09-12T21:40:04.818Z,13.80
2023-09-12T21:42:31.207Z,13.81
2023-09-12T21:44:57.543Z,13.79
2023-09-12T21:47:23.973Z,13.81
2023-09-12T21:49:50.421Z,13.78
2023-09-12T21:52:16.774Z,13.73
2023-09-12T21:54:43.232Z,13.87
2023-09-12T21:57:09.635Z,13.84
2023-09-12T21:59:35.956Z,13.80
2023-09-12T22:02:02.853Z,13.78
2023-09-12T22:04:29.393Z,13.86
2023-09-12T22:06:55.815Z,13.91
2023-09-12T22:09:22.194Z,13.98
2023-09-12T22:11:48.608Z,14.04
2023-09-12T22:14:14.956Z,14.16
2023-09-12T22:16:41.383Z,14.24
2023-09-12T22:19:07.797Z,14.29
2023-09-12T22:21:34.182Z,14.35
2023-09-12T22:24:00.529Z,14.41
2023-09-12T22:26:26.935Z,14.42
2023-09-12T22:28:53.272Z,14.41
2023-09-12T22:31:19.713Z,14.42
2023-09-12T22:33:46.398Z,14.41
2023-09-12T22:36:19.355Z,14.40
2023-09-12T22:38:46.512Z,14.39
2023-09-12T22:41:13.273Z,14.35
2023-09-12T22:43:39.621Z,14.35
2023-09-12T22:46:06.033Z,14.35
2023-09-12T22:48:32.404Z,14.35
2023-09-12T22:50:58.791Z,14.30
2023-09-12T22:53:25.111Z,14.26
2023-09-12T22:55:51.443Z,14.18
2023-09-12T22:58:17.786Z,14.14
2023-09-12T23:00:44.563Z,14.10
2023-09-12T23:03:12.086Z,14.01
2023-09-12T23:05:38.515Z,13.97
2023-09-12T23:08:05.000Z,13.92
2023-09-12T23:10:31.448Z,13.91
2023-09-12T23:12:58.015Z,13.86
2023-09-12T23:15:24.591Z,13.83
2023-09-12T23:17:51.116Z,13.83
2023-09-12T23:20:17.480Z,13.80
2023-09-12T23:22:44.490Z,13.76
2023-09-12T23:25:12.672Z,13.77
2023-09-12T23:27:39.497Z,13.78
2023-09-12T23:30:06.088Z,13.77
2023-09-12T23:32:32.596Z,13.77
2023-09-12T23:34:58.970Z,13.78
2023-09-12T23:37:25.335Z,13.79
2023-09-12T23:39:51.781Z,13.81
2023-09-12T23:42:18.769Z,13.68
2023-09-12T23:44:45.105Z,13.64
2023-09-12T23:47:11.504Z,13.64
2023-09-12T23:49:37.945Z,13.61
2023-09-12T23:52:04.717Z,13.60
2023-09-12T23:54:31.076Z,13.62
2023-09-12T23:56:57.399Z,13.66
2023-09-12T23:59:23.780Z,13.66
